KSPA/SPA METAR and TAF weather

Enter ICAO airport designator
Station Type Date Time Source
KSPA METAR 2019/04/25 07:55 UTC NOAA

KSPA 250755Z AUTO 00000KT 10SM CLR 15/11 A2988 RMK AO2


Station Type Date Time Source
KSPA Decoded METAR 2019/04/25 07:55 UTC NOAA

Spartanburg Memorial, SC, United States (KSPA) 34-55N 081-57W
Apr 25, 2019 - 03:55 AM EDT / 2019.04.25 0755 UTC
Wind: Calm:0
Visibility: 10 mile(s):0
Sky conditions: clear
Temperature: 59 F (15 C)
Dew Point: 51 F (11 C)
Relative Humidity: 76%
Pressure (altimeter): 29.88 in. Hg (1011 hPa)
ob: KSPA 250755Z AUTO 00000KT 10SM CLR 15/11 A2988 RMK AO2
cycle: 8

Station Type Date Time Source
KSPA TAF UTC NOAA

Error!

Example: see airport list